Aviation Digital Data Service (ADDS)

Output produced by TAFs form (1714 UTC 23 October 2017)
found at http://www.aviationweather.gov/adds/tafs/
 
KFLO 231653Z 15015G21KT 10SM BKN029 BKN060 BKN075 25/21 A3001 RMK AO2 SLP160 T02500206
KFLO 231336Z 2314/2412 13008G16KT P6SM VCSH BKN030 
     FM231700 17012G20KT P6SM -SHRA OVC030 
     TEMPO 2318/2322 2SM SHRA OVC015 
     FM232200 20010G16KT 5SM -SHRA BKN020